Weather at Cherry Capital Airport

Public forecast

Using degrees Fahrenheit for public forecast. Weather courtesy of forecast.io.

Current aviation weather report (METAR) for Cherry Capital Airport

Retrieved 2021/07/31 20:53 UTC (38 minutes ago):

KTVC 312053Z 29009KT 8SM SCT035 BKN065 25/15 A2989 RMK AO2 SLP121 T02500150 57007

Aviation forecast (TAF) for Cherry Capital Airport

Retrieved 2021/07/31 18:39 UTC (3 hours ago):

TAF KTVC 311735Z 3118/0118 25012G20KT P6SM SCT030 SCT070 BKN110 FM312300 27007KT 6SM -SHRA VCTS SCT035CB BKN060 FM010500 32006KT P6SM BKN100 FM011200 33011KT P6SM BKN045 FM011500 35010G18KT P6SM BKN023 FM011700 01009KT P6SM BKN050